createdAt,value
2022-10-07T00:00:37.889Z,102680.06
2022-10-07T00:02:00.830Z,102687.93
2022-10-07T00:03:04.033Z,102683.55
2022-10-07T00:04:06.967Z,102680.20
2022-10-07T00:05:10.494Z,102682.38
2022-10-07T00:06:16.268Z,102681.30
2022-10-07T00:07:19.334Z,102679.36
2022-10-07T00:08:22.635Z,102678.36
2022-10-07T00:09:25.692Z,102678.02
2022-10-07T00:10:29.727Z,102678.05
2022-10-07T00:11:33.053Z,102679.63
2022-10-07T00:12:36.054Z,102678.02
2022-10-07T00:13:41.035Z,102679.80
2022-10-07T00:14:44.158Z,102677.86
2022-10-07T00:15:47.099Z,102676.54
2022-10-07T00:16:50.142Z,102676.20
2022-10-07T00:17:53.432Z,102677.69
2022-10-07T00:18:58.670Z,102674.34
2022-10-07T00:20:01.722Z,102677.05
2022-10-07T00:21:12.089Z,102676.48
2022-10-07T00:22:15.210Z,102671.81
2022-10-07T00:23:18.173Z,102671.96
2022-10-07T00:24:21.390Z,102669.73
2022-10-07T00:25:26.004Z,102669.33
2022-10-07T00:26:31.274Z,102668.02
2022-10-07T00:27:34.226Z,102670.00
2022-10-07T00:28:37.364Z,102669.83
2022-10-07T00:29:40.477Z,102670.43
2022-10-07T00:30:44.643Z,102669.21
2022-10-07T00:31:47.779Z,102671.40
2022-10-07T00:32:50.735Z,102669.86
2022-10-07T00:33:55.287Z,102672.62
2022-10-07T00:34:58.626Z,102666.33
2022-10-07T00:36:06.043Z,102668.92
2022-10-07T00:37:09.245Z,102667.05
2022-10-07T00:38:13.672Z,102671.84
2022-10-07T00:39:17.832Z,102670.88
2022-10-07T00:40:22.835Z,102668.09
2022-10-07T00:41:33.013Z,102666.38
2022-10-07T00:42:36.789Z,102664.39
2022-10-07T00:43:40.024Z,102666.70
2022-10-07T00:44:48.638Z,102666.77
2022-10-07T00:45:54.011Z,102667.61
2022-10-07T00:47:03.721Z,102665.05
2022-10-07T00:48:08.677Z,102663.96
2022-10-07T00:49:14.144Z,102666.21
2022-10-07T00:50:26.024Z,102661.93
2022-10-07T00:51:31.631Z,102660.92
2022-10-07T00:52:40.473Z,102660.77
2022-10-07T00:53:46.854Z,102664.90
2022-10-07T00:54:53.477Z,102667.68
2022-10-07T00:56:02.042Z,102663.88
2022-10-07T00:57:05.341Z,102664.28
2022-10-07T00:58:09.879Z,102665.16
2022-10-07T00:59:15.723Z,102660.23
2022-10-07T01:00:21.999Z,102659.41
2022-10-07T01:01:26.537Z,102662.20
2022-10-07T01:02:30.269Z,102656.22
2022-10-07T01:03:36.271Z,102657.94
2022-10-07T01:04:40.257Z,102658.06
2022-10-07T01:05:43.937Z,102658.12
2022-10-07T01:06:47.149Z,102657.89
2022-10-07T01:07:50.883Z,102652.66
2022-10-07T01:08:54.621Z,102654.17
2022-10-07T01:10:00.757Z,102650.61
2022-10-07T01:11:19.480Z,102649.98
2022-10-07T01:12:40.252Z,102648.39
2022-10-07T01:13:49.243Z,102647.89
2022-10-07T01:14:57.996Z,102644.30
2022-10-07T01:16:16.954Z,102642.88
2022-10-07T01:17:27.832Z,102643.91
2022-10-07T01:18:42.191Z,102640.83
2022-10-07T01:20:11.695Z,102638.61
2022-10-07T01:21:52.713Z,102638.27
2022-10-07T01:23:15.070Z,102637.77
2022-10-07T01:24:39.016Z,102637.33
2022-10-07T01:26:00.865Z,102639.40
2022-10-07T01:27:24.391Z,102637.40
2022-10-07T01:28:52.858Z,102636.14
2022-10-07T01:30:04.018Z,102632.38
2022-10-07T01:33:19.113Z,102632.45
2022-10-07T01:34:26.633Z,102631.42
2022-10-07T01:35:35.189Z,102631.44
2022-10-07T01:36:39.964Z,102628.98
2022-10-07T01:37:48.683Z,102629.15
2022-10-07T01:38:57.090Z,102628.95
2022-10-07T01:40:08.064Z,102631.77
2022-10-07T01:41:16.379Z,102626.27
2022-10-07T01:42:21.181Z,102625.02
2022-10-07T01:43:26.510Z,102624.52
2022-10-07T01:44:30.291Z,102620.92
2022-10-07T01:45:40.207Z,102622.90
2022-10-07T01:46:43.789Z,102622.54
2022-10-07T01:47:48.765Z,102623.30
2022-10-07T01:48:52.451Z,102621.20
2022-10-07T01:49:55.744Z,102623.84
2022-10-07T01:51:02.198Z,102621.04
2022-10-07T01:52:31.352Z,102622.45
2022-10-07T01:53:51.328Z,102626.70
2022-10-07T01:55:16.967Z,102626.62
2022-10-07T01:56:20.582Z,102624.52
2022-10-07T01:57:35.313Z,102626.98
2022-10-07T01:58:56.670Z,102622.40
2022-10-07T02:00:02.436Z,102622.86
2022-10-07T02:01:48.699Z,102620.14
2022-10-07T02:03:04.928Z,102618.43
2022-10-07T02:04:31.084Z,102617.19
2022-10-07T02:05:51.338Z,102621.52
2022-10-07T02:07:14.884Z,102620.65
2022-10-07T02:08:23.991Z,102617.05
2022-10-07T02:09:39.802Z,102609.95
2022-10-07T02:11:15.003Z,102616.10
2022-10-07T02:12:29.225Z,102611.67
2022-10-07T02:13:47.289Z,102610.54
2022-10-07T02:14:57.107Z,102608.02
2022-10-07T02:16:05.632Z,102610.44
2022-10-07T02:17:15.319Z,102613.66
2022-10-07T02:18:20.453Z,102609.23
2022-10-07T02:19:28.545Z,102612.65
2022-10-07T02:20:36.952Z,102612.52
2022-10-07T02:21:43.242Z,102609.45
2022-10-07T02:22:48.326Z,102611.27
2022-10-07T02:23:54.787Z,102612.82
2022-10-07T02:24:59.708Z,102614.13
2022-10-07T02:26:06.270Z,102613.65
2022-10-07T02:27:13.938Z,102611.95
2022-10-07T02:28:21.702Z,102616.95
2022-10-07T02:29:27.591Z,102616.04
2022-10-07T02:30:35.532Z,102617.08
2022-10-07T02:31:41.474Z,102612.08
2022-10-07T02:32:48.445Z,102612.20
2022-10-07T02:33:54.158Z,102610.05
2022-10-07T02:35:01.188Z,102613.71
2022-10-07T02:36:11.123Z,102611.87
2022-10-07T02:37:19.711Z,102613.71
2022-10-07T02:38:25.612Z,102612.70
2022-10-07T02:39:29.071Z,102614.45
2022-10-07T02:40:50.895Z,102612.37
2022-10-07T02:42:52.656Z,102610.16
2022-10-07T02:44:04.671Z,102607.42
2022-10-07T02:45:16.249Z,102605.52
2022-10-07T02:46:26.504Z,102606.79
2022-10-07T02:47:51.152Z,102603.16
2022-10-07T02:49:05.141Z,102599.38
2022-10-07T02:50:14.935Z,102599.85
2022-10-07T02:51:22.629Z,102605.02
2022-10-07T02:52:31.322Z,102604.83
2022-10-07T02:53:37.709Z,102604.70
2022-10-07T02:54:48.790Z,102601.98
2022-10-07T02:55:54.455Z,102603.29
2022-10-07T02:57:00.337Z,102605.30
2022-10-07T02:58:08.301Z,102602.85
2022-10-07T02:59:15.079Z,102604.44
2022-10-07T03:00:19.771Z,102605.96
2022-10-07T03:01:32.163Z,102604.45
2022-10-07T03:02:42.433Z,102607.23
2022-10-07T03:03:46.019Z,102610.95
2022-10-07T03:04:49.365Z,102609.61
2022-10-07T03:05:52.804Z,102607.46
2022-10-07T03:06:56.312Z,102611.39
2022-10-07T03:08:03.271Z,102610.08
2022-10-07T03:09:09.780Z,102611.62
2022-10-07T03:10:13.867Z,102607.20
2022-10-07T03:11:17.011Z,102605.73
2022-10-07T03:12:20.045Z,102604.35
2022-10-07T03:13:24.816Z,102605.92
2022-10-07T03:14:31.073Z,102606.66
2022-10-07T03:15:41.924Z,102603.23
2022-10-07T03:16:46.389Z,102607.67
2022-10-07T03:17:49.848Z,102604.31
2022-10-07T03:18:54.269Z,102604.78
2022-10-07T03:20:03.505Z,102603.80
2022-10-07T03:21:08.673Z,102606.39
2022-10-07T03:22:12.360Z,102606.56
2022-10-07T03:23:16.189Z,102608.91
2022-10-07T03:24:19.199Z,102603.91
2022-10-07T03:25:43.556Z,102605.58
2022-10-07T03:26:47.089Z,102609.29
2022-10-07T03:27:50.266Z,102608.84
2022-10-07T03:28:53.640Z,102604.95
2022-10-07T03:29:58.645Z,102606.51
2022-10-07T03:31:10.848Z,102610.06
2022-10-07T03:32:17.477Z,102610.14
2022-10-07T03:33:26.376Z,102608.73
2022-10-07T03:34:31.703Z,102608.89
2022-10-07T03:35:35.047Z,102606.73
2022-10-07T03:36:39.334Z,102607.34
2022-10-07T03:37:43.416Z,102609.31
2022-10-07T03:38:46.683Z,102610.27
2022-10-07T03:39:52.256Z,102606.92
2022-10-07T03:40:55.383Z,102607.21
2022-10-07T04:46:41.841Z,102587.36
2022-10-07T04:48:17.212Z,102586.80
2022-10-07T04:49:53.119Z,102581.65
2022-10-07T05:00:34.101Z,102582.40
2022-10-07T14:37:10.262Z,102068.39
2022-10-07T14:38:27.913Z,102060.25
2022-10-07T14:39:35.872Z,102058.39
2022-10-07T14:40:39.081Z,102053.52
2022-10-07T14:41:42.016Z,102050.58
2022-10-07T14:42:45.592Z,102045.53
2022-10-07T14:43:52.127Z,102045.16
2022-10-07T14:44:57.100Z,102047.64
2022-10-07T14:46:21.305Z,102047.17
2022-10-07T14:47:28.176Z,102042.62
2022-10-07T14:48:32.156Z,102045.05
2022-10-07T14:49:35.671Z,102044.64
2022-10-07T14:50:39.710Z,102042.73
2022-10-07T14:51:44.213Z,102043.89
2022-10-07T14:52:51.894Z,102041.96
2022-10-07T14:54:02.380Z,102041.45
2022-10-07T14:55:17.092Z,102041.57
2022-10-07T14:56:33.338Z,102040.14
2022-10-07T14:57:36.351Z,102041.48
2022-10-07T14:58:39.502Z,102038.10
2022-10-07T14:59:42.739Z,102040.34
2022-10-07T15:00:45.963Z,102032.85
2022-10-07T15:01:49.838Z,102030.88
2022-10-07T15:02:54.649Z,102029.34
2022-10-07T15:03:58.523Z,102031.50
2022-10-07T15:05:01.948Z,102031.58
2022-10-07T15:06:06.684Z,102032.52
2022-10-07T15:07:10.886Z,102030.59
2022-10-07T15:08:14.589Z,102028.77
2022-10-07T15:09:18.489Z,102028.97
2022-10-07T15:10:25.362Z,102033.30
2022-10-07T15:11:29.150Z,102030.27
2022-10-07T15:12:33.152Z,102021.72
2022-10-07T15:13:36.051Z,102021.57
2022-10-07T15:14:38.945Z,102018.19
2022-10-07T15:15:47.016Z,102018.69
2022-10-07T15:16:50.484Z,102019.14
2022-10-07T15:17:53.679Z,102014.64
2022-10-07T15:18:56.843Z,102015.95
2022-10-07T15:20:00.024Z,102014.65
2022-10-07T15:21:03.574Z,102017.42
2022-10-07T15:22:07.010Z,102019.16
2022-10-07T15:23:10.181Z,102013.52
2022-10-07T15:24:13.316Z,102013.90
2022-10-07T15:25:18.059Z,102011.42
2022-10-07T15:26:24.435Z,102005.08
2022-10-07T15:27:27.689Z,102006.81
2022-10-07T15:28:32.475Z,102003.98
2022-10-07T15:29:35.500Z,102003.47
2022-10-07T15:30:39.513Z,102002.41
2022-10-07T15:31:43.308Z,101996.87
2022-10-07T15:32:46.465Z,101996.23
2022-10-07T15:33:50.351Z,101999.20
2022-10-07T15:34:54.221Z,101997.71
2022-10-07T15:35:58.690Z,102000.85
2022-10-07T15:37:01.995Z,101999.87
2022-10-07T15:38:05.136Z,102001.66
2022-10-07T15:39:10.116Z,102002.42
2022-10-07T15:40:13.514Z,101998.27
2022-10-07T15:41:42.855Z,101999.27
2022-10-07T15:42:46.388Z,101999.21
2022-10-07T15:43:49.731Z,101998.31
2022-10-07T15:44:53.464Z,101998.04
2022-10-07T15:45:58.879Z,101998.91
2022-10-07T15:47:02.452Z,102000.43
2022-10-07T15:48:05.763Z,102000.24
2022-10-07T15:49:08.936Z,102002.47
2022-10-07T15:50:11.885Z,101998.74
2022-10-07T15:51:15.211Z,101997.46
2022-10-07T15:52:18.135Z,101995.88
2022-10-07T15:53:23.144Z,101991.80
2022-10-07T15:54:26.289Z,101993.31
2022-10-07T15:55:29.310Z,101990.20
2022-10-07T15:56:32.953Z,101989.00
2022-10-07T15:57:35.907Z,101989.52
2022-10-07T15:58:38.960Z,101989.13
2022-10-07T15:59:42.327Z,101991.42
2022-10-07T16:00:59.888Z,101994.80
2022-10-07T16:02:04.465Z,101993.71
2022-10-07T16:03:08.078Z,101996.59
2022-10-07T16:04:13.160Z,101992.67
2022-10-07T16:05:16.348Z,101992.36
2022-10-07T16:06:24.714Z,101995.44
2022-10-07T16:07:30.261Z,101990.58
2022-10-07T16:08:33.289Z,101990.86
2022-10-07T16:09:36.239Z,101986.72
2022-10-07T16:10:39.489Z,101988.69
2022-10-07T16:11:42.460Z,101987.64
2022-10-07T16:12:45.612Z,101983.58
2022-10-07T16:13:49.165Z,101985.64
2022-10-07T16:14:52.199Z,101982.15
2022-10-07T16:16:02.850Z,101983.05
2022-10-07T16:17:06.140Z,101982.41
2022-10-07T16:18:09.162Z,101981.34
2022-10-07T16:19:12.309Z,101978.33
2022-10-07T16:20:17.794Z,101980.02
2022-10-07T16:21:32.883Z,101974.26
2022-10-07T16:22:36.505Z,101976.17
2022-10-07T16:23:42.104Z,101978.48
2022-10-07T16:24:45.639Z,101974.77
2022-10-07T16:25:48.612Z,101977.04
2022-10-07T16:26:51.793Z,101976.69
2022-10-07T16:28:13.191Z,101979.83
2022-10-07T16:29:37.529Z,101973.77
2022-10-07T16:30:49.176Z,101972.21
2022-10-07T16:31:58.192Z,101972.66
2022-10-07T16:33:01.973Z,101971.95
2022-10-07T16:34:05.041Z,101972.55
2022-10-07T16:35:09.629Z,101969.33
2022-10-07T16:36:13.677Z,101970.39
2022-10-07T16:37:16.841Z,101968.83
2022-10-07T16:38:20.836Z,101968.41
2022-10-07T16:39:24.588Z,101969.52
2022-10-07T16:40:27.855Z,101968.86
2022-10-07T16:41:32.604Z,101968.76
2022-10-07T16:42:35.643Z,101971.55
2022-10-07T16:43:38.771Z,101965.79
2022-10-07T16:44:41.714Z,101967.85
2022-10-07T16:45:44.716Z,101968.24
2022-10-07T16:46:49.023Z,101962.36
2022-10-07T16:47:52.223Z,101965.48
2022-10-07T16:48:55.539Z,101963.59
2022-10-07T16:49:58.400Z,101966.71
2022-10-07T16:51:01.453Z,101965.99
2022-10-07T16:52:04.592Z,101965.23
2022-10-07T16:53:07.609Z,101961.86
2022-10-07T16:54:13.276Z,101962.95
2022-10-07T16:55:18.117Z,101963.41
2022-10-07T16:56:22.568Z,101963.55
2022-10-07T16:57:25.595Z,101963.19
2022-10-07T16:58:28.837Z,101960.62
2022-10-07T16:59:31.908Z,101964.50
2022-10-07T17:00:35.403Z,101963.05
2022-10-07T17:01:39.323Z,101959.95
2022-10-07T17:02:42.618Z,101964.77
2022-10-07T17:03:49.928Z,101963.84
2022-10-07T17:04:53.095Z,101962.02
2022-10-07T17:05:59.631Z,101961.63
2022-10-07T17:07:03.635Z,101963.34
2022-10-07T17:08:06.822Z,101964.67
2022-10-07T17:09:10.072Z,101959.71
2022-10-07T17:10:13.304Z,101961.20
2022-10-07T17:11:29.358Z,101963.41
2022-10-07T17:12:32.314Z,101966.38
2022-10-07T17:13:38.038Z,101964.30
2022-10-07T17:14:43.304Z,101962.35
2022-10-07T17:15:52.414Z,101959.17
2022-10-07T17:16:57.387Z,101963.65
2022-10-07T17:18:00.328Z,101961.38
2022-10-07T17:19:06.387Z,101961.67
2022-10-07T17:20:10.250Z,101961.02
2022-10-07T17:21:13.521Z,101958.52
2022-10-07T17:22:16.705Z,101959.06
2022-10-07T17:23:27.111Z,101955.41
2022-10-07T17:24:30.991Z,101953.48
2022-10-07T17:25:38.032Z,101952.86
2022-10-07T17:26:44.130Z,101951.84
2022-10-07T17:27:48.662Z,101949.59
2022-10-07T17:28:57.643Z,101945.09
2022-10-07T17:30:01.143Z,101942.93
2022-10-07T17:31:11.043Z,101943.52
2022-10-07T17:32:14.539Z,101941.61
2022-10-07T17:33:17.524Z,101942.70
2022-10-07T17:34:22.027Z,101941.49
2022-10-07T17:35:25.508Z,101945.87
2022-10-07T17:36:29.112Z,101945.86
2022-10-07T17:37:32.368Z,101945.73
2022-10-07T17:38:43.917Z,101942.86
2022-10-07T17:39:48.176Z,101943.02
2022-10-07T17:40:51.277Z,101940.31
2022-10-07T17:41:54.362Z,101941.35
2022-10-07T17:42:59.686Z,101940.13
2022-10-07T17:44:08.256Z,101940.41
2022-10-07T17:45:11.390Z,101937.05
2022-10-07T17:46:17.445Z,101934.83
2022-10-07T17:47:44.100Z,101940.75
2022-10-07T17:48:50.399Z,101937.13
2022-10-07T17:49:54.365Z,101938.18
2022-10-07T17:51:02.567Z,101939.65
2022-10-07T17:52:27.625Z,101937.54
2022-10-07T17:53:39.570Z,101933.05
2022-10-07T17:54:42.869Z,101933.69
2022-10-07T17:55:52.106Z,101933.61
2022-10-07T17:56:55.086Z,101938.25
2022-10-07T17:57:58.070Z,101934.80
2022-10-07T17:59:01.782Z,101935.64
2022-10-07T18:00:07.146Z,101935.28
2022-10-07T18:01:29.889Z,101933.41
2022-10-07T18:02:34.130Z,101934.64
2022-10-07T18:03:38.277Z,101936.21
2022-10-07T18:04:41.485Z,101935.96
2022-10-07T18:05:53.843Z,101934.91
2022-10-07T18:06:58.221Z,101935.23
2022-10-07T18:08:04.300Z,101935.15
2022-10-07T18:09:09.880Z,101931.84
2022-10-07T18:10:13.667Z,101931.66
2022-10-07T18:11:17.602Z,101931.95
2022-10-07T18:12:40.338Z,101931.45
2022-10-07T18:14:09.380Z,101927.40
2022-10-07T18:15:25.138Z,101925.73
2022-10-07T18:16:32.300Z,101926.43
2022-10-07T18:17:36.830Z,101926.52
2022-10-07T18:18:41.350Z,101925.80
2022-10-07T18:19:45.145Z,101922.34
2022-10-07T18:20:48.223Z,101923.06
2022-10-07T18:21:51.429Z,101920.61
2022-10-07T18:22:57.715Z,101923.30
2022-10-07T18:24:00.843Z,101916.30
2022-10-07T18:25:05.219Z,101920.02
2022-10-07T18:26:10.387Z,101917.70
2022-10-07T18:27:13.628Z,101916.77
2022-10-07T18:28:17.106Z,101916.83
2022-10-07T18:29:20.291Z,101917.73
2022-10-07T18:30:23.362Z,101915.77
2022-10-07T18:31:27.403Z,101913.73
2022-10-07T18:32:31.164Z,101912.98
2022-10-07T18:33:36.293Z,101909.02
2022-10-07T18:34:39.535Z,101909.46
2022-10-07T18:35:43.579Z,101908.14
2022-10-07T18:36:55.876Z,101906.55
2022-10-07T18:38:01.574Z,101902.75
2022-10-07T18:39:10.232Z,101902.50
2022-10-07T18:40:13.225Z,101903.51
2022-10-07T18:41:17.839Z,101901.63
2022-10-07T18:42:21.085Z,101901.35
2022-10-07T18:43:24.250Z,101896.92
2022-10-07T18:44:27.339Z,101900.27
2022-10-07T18:45:30.357Z,101895.58
2022-10-07T18:46:33.747Z,101896.33
2022-10-07T18:47:36.829Z,101892.30
2022-10-07T18:48:41.933Z,101894.51
2022-10-07T18:49:45.104Z,101890.56
2022-10-07T18:50:54.677Z,101889.35
2022-10-07T18:51:57.848Z,101890.29
2022-10-07T18:53:00.897Z,101888.61
2022-10-07T18:54:04.152Z,101887.48
2022-10-07T18:55:07.559Z,101886.42
2022-10-07T18:56:13.133Z,101883.69
2022-10-07T18:57:16.138Z,101885.58
2022-10-07T18:58:19.338Z,101884.46
2022-10-07T18:59:22.444Z,101883.33
2022-10-07T19:00:25.804Z,101881.38
2022-10-07T19:01:30.414Z,101878.11
2022-10-07T19:02:33.498Z,101875.82
2022-10-07T19:03:36.532Z,101873.45
2022-10-07T19:04:39.675Z,101871.91
2022-10-07T19:05:42.809Z,101867.58
2022-10-07T19:06:46.532Z,101868.23
2022-10-07T19:07:49.778Z,101869.85
2022-10-07T19:08:54.935Z,101864.68
2022-10-07T19:09:58.171Z,101865.59
2022-10-07T19:11:12.150Z,101866.02
2022-10-07T19:12:33.444Z,101867.93
2022-10-07T19:13:50.043Z,101862.05
2022-10-07T19:14:53.002Z,101866.20
2022-10-07T19:15:56.627Z,101859.61
2022-10-07T19:16:59.861Z,101865.09
2022-10-07T19:18:02.870Z,101862.06
2022-10-07T19:19:08.795Z,101861.52
2022-10-07T19:20:11.858Z,101859.61
2022-10-07T19:21:16.021Z,101856.79
2022-10-07T19:22:19.480Z,101855.05
2022-10-07T19:23:22.417Z,101854.84
2022-10-07T19:24:45.256Z,101856.70
2022-10-07T19:25:49.113Z,101854.84
2022-10-07T19:26:54.020Z,101854.29
2022-10-07T19:27:57.039Z,101852.25
2022-10-07T19:29:00.294Z,101854.82
2022-10-07T19:30:04.847Z,101853.67
2022-10-07T19:31:16.809Z,101854.10
2022-10-07T19:32:20.315Z,101848.83
2022-10-07T19:33:24.077Z,101848.90
2022-10-07T19:34:27.885Z,101847.10
2022-10-07T19:35:33.114Z,101847.77
2022-10-07T19:36:40.034Z,101848.11
2022-10-07T19:37:43.309Z,101844.41
2022-10-07T19:38:55.596Z,101845.03
2022-10-07T19:39:58.786Z,101844.73
2022-10-07T19:41:02.039Z,101842.38
2022-10-07T19:42:05.133Z,101840.14
2022-10-07T19:43:10.277Z,101838.20
2022-10-07T19:44:14.390Z,101839.77
2022-10-07T19:45:17.828Z,101841.86
2022-10-07T19:46:22.609Z,101840.58
2022-10-07T19:47:25.809Z,101839.49
2022-10-07T19:48:32.355Z,101838.86
2022-10-07T19:49:36.957Z,101840.73
2022-10-07T19:50:40.279Z,101833.94
2022-10-07T19:51:44.795Z,101835.26
2022-10-07T19:52:47.885Z,101832.14
2022-10-07T19:53:51.786Z,101837.11
2022-10-07T19:54:54.956Z,101834.24
2022-10-07T19:55:59.290Z,101831.99
2022-10-07T19:57:02.369Z,101837.24
2022-10-07T19:58:05.656Z,101834.80
2022-10-07T19:59:11.186Z,101829.37
2022-10-07T20:00:15.044Z,101832.89
2022-10-07T20:01:21.389Z,101827.67
2022-10-07T20:02:24.439Z,101830.21
2022-10-07T20:03:27.470Z,101826.52
2022-10-07T20:04:31.011Z,101828.21
2022-10-07T20:05:34.097Z,101827.50
2022-10-07T20:06:37.713Z,101826.38
2022-10-07T20:07:40.930Z,101822.80
2022-10-07T20:08:46.649Z,101822.17
2022-10-07T20:09:49.759Z,101822.33
2022-10-07T20:10:52.853Z,101818.58
2022-10-07T20:11:56.060Z,101819.76
2022-10-07T20:12:59.076Z,101816.55
2022-10-07T20:14:04.759Z,101814.86
2022-10-07T20:15:09.221Z,101813.17
2022-10-07T20:16:26.135Z,101816.27
2022-10-07T20:17:30.174Z,101811.89
2022-10-07T20:18:34.522Z,101816.55
2022-10-07T20:19:37.992Z,101812.27
2022-10-07T20:20:41.109Z,101810.24
2022-10-07T20:21:44.597Z,101814.58
2022-10-07T20:22:49.491Z,101810.51
2022-10-07T20:23:54.823Z,101811.41
2022-10-07T20:24:57.907Z,101810.59
2022-10-07T20:26:06.094Z,101808.42
2022-10-07T20:27:09.081Z,101807.09
2022-10-07T20:28:12.185Z,101806.56
2022-10-07T20:29:16.587Z,101807.73
2022-10-07T20:30:20.635Z,101804.21
2022-10-07T20:31:26.477Z,101802.30
2022-10-07T20:32:34.018Z,101804.00
2022-10-07T20:33:42.800Z,101802.20
2022-10-07T20:34:48.439Z,101800.91
2022-10-07T20:35:52.919Z,101798.21
2022-10-07T20:36:56.740Z,101799.34
2022-10-07T20:37:59.752Z,101797.73
2022-10-07T20:39:24.532Z,101795.77
2022-10-07T20:40:45.924Z,101794.23
2022-10-07T20:42:09.064Z,101792.34
2022-10-07T20:43:12.755Z,101791.39
2022-10-07T20:44:17.333Z,101789.95
2022-10-07T20:45:23.003Z,101788.45
2022-10-07T20:46:26.068Z,101789.05
2022-10-07T20:47:32.306Z,101789.50
2022-10-07T20:48:35.926Z,101788.25
2022-10-07T20:49:41.579Z,101788.55
2022-10-07T20:50:44.692Z,101788.04
2022-10-07T20:51:51.929Z,101787.11
2022-10-07T20:52:55.415Z,101791.45
2022-10-07T20:53:58.517Z,101788.60
2022-10-07T20:55:01.545Z,101794.67
2022-10-07T20:56:04.806Z,101792.39
2022-10-07T20:57:07.980Z,101789.48
2022-10-07T20:58:10.970Z,101790.63
2022-10-07T20:59:14.299Z,101793.45
2022-10-07T21:00:18.720Z,101790.97
2022-10-07T21:01:21.811Z,101790.82
2022-10-07T21:02:25.620Z,101787.11
2022-10-07T21:03:30.504Z,101787.87
2022-10-07T21:04:33.868Z,101790.17
2022-10-07T21:05:38.453Z,101787.88
2022-10-07T21:06:42.777Z,101789.75
2022-10-07T21:07:45.773Z,101789.56
2022-10-07T21:08:53.520Z,101787.76
2022-10-07T21:09:58.185Z,101785.83
2022-10-07T21:11:02.440Z,101786.55
2022-10-07T21:12:08.016Z,101780.30
2022-10-07T21:13:11.023Z,101781.20
2022-10-07T21:14:15.143Z,101779.55
2022-10-07T21:15:19.346Z,101778.18
2022-10-07T21:16:26.690Z,101781.23
2022-10-07T21:17:30.152Z,101777.15
2022-10-07T21:18:33.630Z,101774.00
2022-10-07T21:19:36.887Z,101777.30
2022-10-07T21:20:56.804Z,101772.41
2022-10-07T21:22:00.334Z,101769.76
2022-10-07T21:23:03.496Z,101768.04
2022-10-07T21:24:07.342Z,101769.17
2022-10-07T21:25:12.100Z,101765.53
2022-10-07T21:26:15.672Z,101762.94
2022-10-07T21:27:18.684Z,101761.92
2022-10-07T21:28:21.933Z,101760.73
2022-10-07T21:29:24.900Z,101757.73
2022-10-07T21:30:29.642Z,101754.29
2022-10-07T21:31:32.871Z,101753.23
2022-10-07T21:32:35.910Z,101753.39
2022-10-07T21:33:39.884Z,101752.59
2022-10-07T21:34:43.680Z,101749.54
2022-10-07T21:35:47.792Z,101752.45
2022-10-07T21:36:53.900Z,101750.17
2022-10-07T21:37:57.889Z,101751.05
2022-10-07T21:39:01.005Z,101749.02
2022-10-07T21:40:04.462Z,101744.41
2022-10-07T21:41:17.085Z,101745.54
2022-10-07T21:42:20.953Z,101746.85
2022-10-07T21:43:24.059Z,101743.23
2022-10-07T21:44:27.594Z,101747.42
2022-10-07T21:45:31.061Z,101740.86
2022-10-07T21:46:36.806Z,101740.23
2022-10-07T21:47:40.011Z,101735.83
2022-10-07T21:48:44.224Z,101736.25
2022-10-07T21:49:47.302Z,101734.91
2022-10-07T21:50:54.875Z,101735.60
2022-10-07T21:51:58.907Z,101735.48
2022-10-07T21:53:02.539Z,101737.52
2022-10-07T21:54:06.074Z,101732.75
2022-10-07T21:55:09.315Z,101734.40
2022-10-07T21:56:13.565Z,101731.45
2022-10-07T21:57:16.487Z,101734.05
2022-10-07T21:59:00.626Z,101733.70
2022-10-07T22:00:04.654Z,101732.35
2022-10-07T22:01:26.761Z,101724.13
2022-10-07T22:02:35.338Z,101725.31
2022-10-07T22:03:38.778Z,101722.39
2022-10-07T22:04:45.113Z,101717.81
2022-10-07T22:05:51.941Z,101714.30
2022-10-07T22:07:55.222Z,101718.83
2022-10-07T22:09:01.324Z,101712.14
2022-10-07T22:10:11.432Z,101709.80
2022-10-07T22:11:19.786Z,101709.22
2022-10-07T22:12:27.172Z,101707.23
2022-10-07T22:13:34.246Z,101706.64
2022-10-07T22:14:37.887Z,101704.71
2022-10-07T22:15:40.880Z,101703.84
2022-10-07T22:16:47.283Z,101698.50
2022-10-07T22:17:50.779Z,101702.13
2022-10-07T22:18:55.077Z,101694.84
2022-10-07T22:19:58.917Z,101696.09
2022-10-07T22:21:12.579Z,101696.21
2022-10-07T22:22:15.959Z,101696.13
2022-10-07T22:23:30.005Z,101695.64
2022-10-07T22:24:34.260Z,101691.55
2022-10-07T22:25:37.830Z,101690.08
2022-10-07T22:26:51.323Z,101688.61
2022-10-07T22:27:54.442Z,101687.67
2022-10-07T22:28:57.571Z,101689.23
2022-10-07T22:30:00.684Z,101684.56
2022-10-07T22:31:07.134Z,101684.70
2022-10-07T22:32:10.302Z,101683.18
2022-10-07T22:33:15.300Z,101681.13
2022-10-07T22:34:37.200Z,101681.49
2022-10-07T22:35:40.328Z,101677.05
2022-10-07T22:36:43.488Z,101675.88
2022-10-07T22:37:46.446Z,101672.29
2022-10-07T22:38:50.137Z,101668.12
2022-10-07T22:39:53.161Z,101668.96
2022-10-07T22:40:56.252Z,101665.94
2022-10-07T22:42:01.180Z,101660.66
2022-10-07T22:43:05.141Z,101659.55
2022-10-07T22:44:08.162Z,101656.38
2022-10-07T22:45:11.232Z,101652.09
2022-10-07T22:46:26.950Z,101649.11
2022-10-07T22:47:30.378Z,101646.48
2022-10-07T22:48:34.291Z,101646.23
2022-10-07T22:49:45.072Z,101643.05
2022-10-07T22:50:52.937Z,101640.54
2022-10-07T22:51:56.008Z,101639.59
2022-10-07T22:52:59.151Z,101639.38
2022-10-07T22:54:02.103Z,101636.83
2022-10-07T22:55:07.105Z,101635.15
2022-10-07T22:56:12.925Z,101634.48
2022-10-07T22:57:16.710Z,101631.37
2022-10-07T22:58:19.733Z,101630.24
2022-10-07T22:59:22.844Z,101629.65
2022-10-07T23:00:26.131Z,101628.33
2022-10-07T23:01:31.342Z,101630.52
2022-10-07T23:02:34.450Z,101628.29
2022-10-07T23:03:39.752Z,101630.41
2022-10-07T23:04:43.047Z,101631.68
2022-10-07T23:05:49.379Z,101629.55
2022-10-07T23:06:53.535Z,101628.94
2022-10-07T23:07:56.638Z,101625.42
2022-10-07T23:09:03.535Z,101625.29
2022-10-07T23:10:07.493Z,101623.76
2022-10-07T23:11:15.651Z,101627.54
2022-10-07T23:12:18.594Z,101624.18
2022-10-07T23:13:21.631Z,101623.59
2022-10-07T23:14:24.870Z,101622.98
2022-10-07T23:15:28.198Z,101621.92
2022-10-07T23:16:33.967Z,101619.98
2022-10-07T23:17:36.953Z,101618.71
2022-10-07T23:18:42.698Z,101612.16
2022-10-07T23:19:46.057Z,101610.04
2022-10-07T23:20:57.738Z,101610.13
2022-10-07T23:22:00.641Z,101611.98
2022-10-07T23:23:04.511Z,101605.11
2022-10-07T23:24:09.937Z,101604.22
2022-10-07T23:25:13.419Z,101603.20
2022-10-07T23:26:19.482Z,101602.92
2022-10-07T23:27:23.108Z,101605.81
2022-10-07T23:28:26.241Z,101607.45
2022-10-07T23:29:30.056Z,101607.48
2022-10-07T23:30:37.419Z,101603.98
2022-10-07T23:31:40.527Z,101607.94